Main page
METAR-TAF:

METAR-TAF

Airports :

Gibraltar, Gibraltar

Gibraltar International Airport

latitude: 36-09N, longitude: 005-21W, elevation: 5 m

Current weather observation

The report was made 51 minutes ago, at 15:50 UTC
Wind 21 kt from the South/Southwest
Temperature 25°C
Humidity 61%
Pressure 1013 hPa
Visibility 10 km or more

METAR: LXGB 221550Z AUTO 20021KT 9999 // NCD 25/17 Q1013

Time: 18:41 (16:41 UTC)

Forecast

The report was made 1 hour and 40 minutes ago, at 15:01 UTC
Forecast valid from 22 at 15 UTC to 22 at 22 UTC
Wind 15 kt from the South/Southwest
Visibility 10 km or more
no clouds below 1500 m and no cumulonimbus
Probability 30% :
Temporary
from 22 at 15 UTC to 22 at 19 UTC
Wind 17 kt from the South with gusts up to 27 kt

TAF: LXGB 221501Z 2215/2222 21015KT CAVOK 530001 PROB30 TEMPO 2215/2219 19017G27KT 560001

Weather observations and forecasts of more than 4000 airports (METAR and TAF reports).

The available stations are represented by yellow and red dots on the map.

Hover mouse over dot to see the name of the station.

Then click to see weather observations and forecasts.

To change the map : click on the green buttons with a black cross to zoom in, on the green button with a dash to zoom out, or on the green arrows for adjacent maps.


METAR-TAF: